map of INN home
INN - Airport
Location
City:  Innsbruck, Tirol (Tyrol), Austria
Name:Innsbruck Airport
Old (Alt.):Kranebitten Airport
ICAO:LOWI
IATA:INN

Details
Type:Airport (Flugplatz, Airfield)
Use:Public/Civil, International (customs port of entry)
Latitude:4715'37"N (47.260219)
Longitude:1120'38"E (11.343964)
Datum:WGS 1984
Elevation:1906 ft (581 m)
Variation:3.00E (WMM2015 magnetic declination)
0.12 annual change
Runways:1
Longest:6562 × 148 ft (2000 × 45 m), paved

Time
Time Zone:UTC+1 (DST+2)
Local Time:

Weather
METAR:LOWI 210620Z VRB02KT 9999 BKN095 09/06 Q1020 NOSIG
TAF:LOWI 210515Z 2106/2206 27004KT 9999 FEW080 BKN120 TX19/2114Z TN08/2106Z
BECMG 2122/2200 -SHRA FEW030 SCT050 BKN080
TEMPO 2200/2206 27012KT SHRA FEW005 SCT020 BKN050 FEW050TCU

Related Locations
Nearby:
Farthest:CHT: 11990 mi / 19296 km
Waitangi [Tuuta], CIT, NZ

Find:

   beyond  
but within

Other Information
Maps:
NOTAMs:
Links:
Sources:

  
flag of Austria
flag of Tirol (Tyrol)
  

Sectional Chart

Flight Planning
at skyvector.com

Satellite Image

Google Maps Satellite view

 

Copyright © 2004-2017 Karl L. Swartz. All rights reserved.
The Great Circle Mapper name and logo are trademarks of the Great Circle Mapper.
All other trademarks mentioned herein belong to their respective owners.
Please see credits for attibutions and further copyright information.

  Follow gcmap on Facebook Follow gcmap on Twitter Follow gcmap on Google+ GCmap on LinkedIn

hCard Microformat

Geo Microformat